Time;durP1;ratioP1;P1;durP2;ratioP2;P2;SDS_P1;SDS_P2;PMS_P1;PMS_P2;Temp;Humidity;BMP_temperature;BMP_pressure;BME280_temperature;BME280_humidity;BME280_pressure;Samples;Min_cycle;Max_cycle;Signal;HPM_P1;HPM_P2
2022/01/15 00:00:36;;;;;;;129.38;45.83;;;;;;;2.49;100.00;103254.19;5045436;28;20021;-69
2022/01/15 00:03:03;;;;;;;118.15;48.67;;;;;;;2.51;100.00;103252.44;5037461;28;20018;-69
2022/01/15 00:05:30;;;;;;;139.52;47.63;;;;;;;2.53;100.00;103248.06;5043763;28;20029;-68
2022/01/15 00:07:55;;;;;;;125.95;48.70;;;;;;;2.51;100.00;103240.19;5049163;28;20357;-69
2022/01/15 00:10:25;;;;;;;123.20;48.65;;;;;;;2.51;100.00;103244.56;5048169;28;20026;-69
2022/01/15 00:12:50;;;;;;;133.10;47.33;;;;;;;2.52;100.00;103249.81;5035982;28;20032;-69
2022/01/15 00:15:22;;;;;;;114.65;46.70;;;;;;;2.52;100.00;103248.94;5049595;28;20238;-69
2022/01/15 00:17:57;;;;;;;132.25;46.85;;;;;;;2.53;100.00;103243.69;5051269;28;20025;-68
2022/01/15 00:20:23;;;;;;;133.52;45.95;;;;;;;2.55;100.00;103251.56;5050510;28;20030;-69
2022/01/15 00:22:50;;;;;;;132.57;49.03;;;;;;;2.55;100.00;103243.69;5052644;28;20059;-68
2022/01/15 00:25:17;;;;;;;129.40;46.75;;;;;;;2.54;100.00;103247.19;5045440;28;20056;-68
2022/01/15 00:27:43;;;;;;;123.78;46.33;;;;;;;2.53;100.00;103233.19;5047118;28;20025;-68
2022/01/15 00:30:10;;;;;;;128.15;46.97;;;;;;;2.54;100.00;103234.06;5048029;28;20179;-69
2022/01/15 00:32:35;;;;;;;124.93;45.75;;;;;;;2.56;100.00;103234.94;5053838;28;20040;-70
2022/01/15 00:35:01;;;;;;;122.80;46.13;;;;;;;2.56;100.00;103232.31;5041437;28;20025;-68
2022/01/15 00:37:30;;;;;;;130.57;48.60;;;;;;;2.56;100.00;103227.06;5043259;28;20621;-69
2022/01/15 00:39:57;;;;;;;118.32;44.38;;;;;;;2.54;100.00;103224.44;5048220;28;20033;-69
2022/01/15 00:42:22;;;;;;;121.95;45.30;;;;;;;2.52;100.00;103220.09;5041836;28;20038;-69
2022/01/15 00:44:50;;;;;;;153.38;39.10;;;;;;;2.51;100.00;103218.34;5044850;28;20085;-69
2022/01/15 00:47:15;;;;;;;139.25;41.90;;;;;;;2.48;100.00;103215.72;5050243;28;20117;-69
2022/01/15 00:49:40;;;;;;;111.47;42.40;;;;;;;2.46;100.00;103218.34;5050176;28;20050;-70
2022/01/15 00:52:05;;;;;;;137.82;43.25;;;;;;;2.44;100.00;103216.63;5036499;28;20538;-68
2022/01/15 00:54:31;;;;;;;107.32;40.67;;;;;;;2.43;100.00;103209.63;5046641;28;20132;-69
2022/01/15 00:56:56;;;;;;;123.07;42.30;;;;;;;2.43;100.00;103213.09;5047051;28;20093;-69
2022/01/15 00:59:21;;;;;;;127.90;43.42;;;;;;;2.43;100.00;103212.25;5047133;28;20534;-68
2022/01/15 01:01:47;;;;;;;122.03;41.78;;;;;;;2.42;100.00;103198.28;5045861;28;20029;-68
2022/01/15 01:04:12;;;;;;;109.05;40.75;;;;;;;2.42;100.00;103200.91;5051268;28;20045;-69
2022/01/15 01:06:37;;;;;;;104.28;39.40;;;;;;;2.41;100.00;103196.50;5053196;28;20075;-69
2022/01/15 01:09:03;;;;;;;125.72;40.92;;;;;;;2.40;100.00;103197.41;5050086;28;20045;-69
2022/01/15 01:11:44;;;;;;;135.80;38.63;;;;;;;2.39;100.00;103193.03;5051686;28;20026;-69
2022/01/15 01:24:48;;;;;;;99.10;36.33;;;;;;;2.32;100.00;103186.94;5043489;28;20575;-68
2022/01/15 01:27:22;;;;;;;96.57;36.40;;;;;;;2.31;100.00;103184.31;5052303;28;20033;-69
2022/01/15 01:30:06;;;;;;;98.82;36.47;;;;;;;2.31;100.00;103184.31;5051386;28;20044;-68
2022/01/15 01:32:43;;;;;;;100.95;37.13;;;;;;;2.30;100.00;103174.69;5048222;28;20496;-69
2022/01/15 01:35:14;;;;;;;98.05;34.83;;;;;;;2.27;100.00;103178.22;5052490;28;20029;-69
2022/01/15 01:37:44;;;;;;;108.57;33.35;;;;;;;2.27;100.00;103177.38;5041596;28;20048;-68
2022/01/15 01:40:19;;;;;;;98.90;33.55;;;;;;;2.22;100.00;103182.63;5040013;28;20543;-68
2022/01/15 01:42:56;;;;;;;97.90;35.47;;;;;;;2.19;100.00;103178.25;5041517;28;20041;-68
2022/01/15 01:45:21;;;;;;;100.07;35.70;;;;;;;2.17;100.00;103176.53;5032975;28;20428;-68
2022/01/15 01:47:46;;;;;;;97.45;35.47;;;;;;;2.15;100.00;103175.63;5041943;28;20033;-68
2022/01/15 01:50:18;;;;;;;106.13;34.50;;;;;;;2.11;100.00;103166.91;5040349;28;20085;-68
2022/01/15 01:52:47;;;;;;;93.32;33.13;;;;;;;2.08;100.00;103163.44;5036870;28;20037;-68
2022/01/15 01:55:13;;;;;;;101.43;36.17;;;;;;;2.06;100.00;103159.97;5041807;28;20029;-68
2022/01/15 01:57:40;;;;;;;104.60;34.35;;;;;;;2.03;100.00;103169.59;5032401;28;20025;-68
2022/01/15 02:00:08;;;;;;;89.20;34.65;;;;;;;1.99;100.00;103162.59;5042081;28;20030;-68
2022/01/15 02:02:34;;;;;;;110.60;35.47;;;;;;;1.99;100.00;103159.97;5043751;28;20056;-68
2022/01/15 02:04:59;;;;;;;98.45;33.72;;;;;;;1.96;100.00;103173.09;5041263;28;20471;-68
2022/01/15 02:07:27;;;;;;;112.80;34.55;;;;;;;1.93;100.00;103157.38;5047837;28;20029;-69
2022/01/15 02:09:54;;;;;;;110.57;34.30;;;;;;;1.94;100.00;103155.63;5044375;28;20013;-69
2022/01/15 02:12:19;;;;;;;109.80;34.85;;;;;;;1.91;100.00;103156.50;5052517;28;20096;-68
2022/01/15 02:14:45;;;;;;;108.45;34.15;;;;;;;1.88;100.00;103151.25;5036881;28;20025;-69
2022/01/15 02:17:12;;;;;;;95.80;34.38;;;;;;;1.88;100.00;103146.03;5051500;28;20025;-68
2022/01/15 02:19:46;;;;;;;115.45;33.08;;;;;;;1.88;100.00;103145.16;5053221;28;20035;-69
2022/01/15 02:24:55;;;;;;;98.13;32.55;;;;;;;1.88;100.00;103147.78;5034298;28;20049;-69
2022/01/15 02:27:21;;;;;;;99.80;34.08;;;;;;;1.88;100.00;103143.41;5033136;28;20101;-69
2022/01/15 02:29:46;;;;;;;94.78;33.13;;;;;;;1.89;100.00;103145.16;5031320;28;20041;-69
2022/01/15 02:32:11;;;;;;;95.20;32.55;;;;;;;1.87;100.00;103143.44;5049515;28;20057;-69
2022/01/15 02:34:36;;;;;;;78.05;30.73;;;;;;;1.86;100.00;103129.44;5051503;28;20029;-68
2022/01/15 02:37:02;;;;;;;85.30;30.08;;;;;;;1.85;100.00;103131.19;5052754;28;20531;-69
2022/01/15 02:39:27;;;;;;;89.80;32.25;;;;;;;1.87;100.00;103125.09;5052031;28;20112;-69
2022/01/15 02:41:53;;;;;;;83.18;32.10;;;;;;;1.87;100.00;103115.47;5050101;28;20087;-68
2022/01/15 02:44:19;;;;;;;84.93;31.70;;;;;;;1.85;100.00;103107.63;5045986;28;20048;-68
2022/01/15 02:49:13;;;;;;;79.47;29.67;;;;;;;1.86;100.00;103103.25;5051993;28;20033;-69
2022/01/15 02:51:38;;;;;;;82.72;30.23;;;;;;;1.87;100.00;103096.25;5048882;28;20060;-69
2022/01/15 02:54:05;;;;;;;83.35;29.35;;;;;;;1.83;100.00;103093.66;5047739;28;20056;-68
2022/01/15 02:56:39;;;;;;;90.40;29.45;;;;;;;1.84;100.00;103086.66;5051265;28;20021;-69
2022/01/15 02:59:07;;;;;;;75.57;29.10;;;;;;;1.83;100.00;103082.28;5040727;28;20021;-68
2022/01/15 03:01:33;;;;;;;86.32;30.67;;;;;;;1.84;100.00;103081.41;5052026;28;20292;-69
2022/01/15 03:03:59;;;;;;;84.28;29.58;;;;;;;1.87;100.00;103085.78;5045848;28;20065;-68
2022/01/15 03:06:24;;;;;;;76.07;28.23;;;;;;;1.85;100.00;103083.16;5037876;28;20048;-68
2022/01/15 03:08:51;;;;;;;78.72;27.50;;;;;;;1.84;100.00;103079.66;5046537;28;20045;-69
2022/01/15 03:11:17;;;;;;;77.95;28.95;;;;;;;1.85;100.00;103083.16;5049927;28;20033;-69
2022/01/15 03:13:43;;;;;;;71.32;27.95;;;;;;;1.84;100.00;103078.78;5048847;28;20088;-68
2022/01/15 03:16:13;;;;;;;73.13;26.73;;;;;;;1.82;100.00;103076.19;5048161;28;20088;-69
2022/01/15 03:18:38;;;;;;;;;;;;;;;1.89;100.00;103076.16;5051773;28;20090;-68
2022/01/15 03:21:04;;;;;;;65.90;23.88;;;;;;;1.80;100.00;103079.69;5038256;28;19905;-69
2022/01/15 03:23:30;;;;;;;66.88;25.05;;;;;;;1.78;100.00;103078.81;5049624;28;20029;-68
2022/01/15 03:25:55;;;;;;;60.40;25.17;;;;;;;1.74;100.00;103075.34;5048565;28;20522;-68
2022/01/15 03:28:20;;;;;;;63.25;25.08;;;;;;;1.74;100.00;103070.09;5041367;28;20045;-69
2022/01/15 03:30:46;;;;;;;62.80;24.45;;;;;;;1.70;100.00;103068.38;5046390;28;20040;-69
2022/01/15 03:33:11;;;;;;;60.28;25.63;;;;;;;1.68;100.00;103064.88;5044585;28;20459;-69
2022/01/15 03:35:37;;;;;;;56.15;24.90;;;;;;;1.72;100.00;103060.50;5045661;28;20037;-68
2022/01/15 03:38:04;;;;;;;65.88;26.08;;;;;;;1.74;100.00;103066.63;5047285;28;20063;-68
2022/01/15 03:40:30;;;;;;;60.10;26.15;;;;;;;1.74;100.00;103057.00;5046340;28;20032;-68
2022/01/15 03:42:56;;;;;;;66.60;25.70;;;;;;;1.75;100.00;103057.84;5041944;28;20025;-68
2022/01/15 03:45:21;;;;;;;72.97;27.17;;;;;;;1.76;100.00;103063.09;5038741;28;20029;-67
2022/01/15 03:47:46;;;;;;;66.80;27.60;;;;;;;1.77;100.00;103056.13;5042512;28;20451;-67
2022/01/15 03:50:13;;;;;;;70.13;28.10;;;;;;;1.77;100.00;103050.88;5033041;28;20042;-68
2022/01/15 03:52:39;;;;;;;64.40;26.55;;;;;;;1.79;100.00;103046.50;5032178;28;20033;-67
2022/01/15 03:55:07;;;;;;;67.00;27.00;;;;;;;1.77;100.00;103043.88;5032798;28;20047;-68
2022/01/15 03:57:33;;;;;;;74.13;28.65;;;;;;;1.77;100.00;103033.41;5031262;28;20045;-68
2022/01/15 04:00:00;;;;;;;65.15;27.23;;;;;;;1.76;100.00;103031.66;5024064;28;20495;-67
2022/01/15 04:02:25;;;;;;;63.80;26.55;;;;;;;1.77;100.00;103027.31;5032967;28;20104;-67
2022/01/15 04:04:50;;;;;;;73.78;27.67;;;;;;;1.76;100.00;103041.28;5030612;28;20113;-68
2022/01/15 04:07:16;;;;;;;70.55;25.73;;;;;;;1.72;100.00;103040.41;5031763;28;20053;-68
2022/01/15 04:09:41;;;;;;;70.13;25.90;;;;;;;1.66;100.00;103049.16;5032033;28;20030;-68
2022/01/15 04:12:07;;;;;;;54.60;22.67;;;;;;;1.61;100.00;103045.69;5032271;28;20025;-68
2022/01/15 04:14:32;;;;;;;60.20;23.77;;;;;;;1.58;100.00;103032.63;5025388;28;20065;-67
2022/01/15 04:16:57;;;;;;;62.55;26.00;;;;;;;1.60;100.00;103032.59;5014311;28;20018;-68
2022/01/15 04:19:24;;;;;;;55.50;24.77;;;;;;;1.58;100.00;103022.16;5014814;28;20040;-67
2022/01/15 04:21:49;;;;;;;63.42;24.10;;;;;;;1.58;100.00;103030.00;5012443;28;20026;-68
2022/01/15 04:24:14;;;;;;;67.03;25.02;;;;;;;1.54;100.00;103023.03;5011350;28;20088;-68
2022/01/15 04:26:40;;;;;;;75.80;27.15;;;;;;;1.52;100.00;103027.41;5011655;28;20042;-68
2022/01/15 04:29:06;;;;;;;71.75;28.35;;;;;;;1.52;100.00;103027.41;5009682;28;20026;-68
2022/01/15 04:31:49;;;;;;;67.80;28.35;;;;;;;1.52;100.00;103023.91;5010480;28;20034;-68
2022/01/15 04:34:17;;;;;;;70.63;27.10;;;;;;;1.50;100.00;103023.03;5010631;28;20038;-68
2022/01/15 04:36:43;;;;;;;69.38;27.75;;;;;;;1.52;100.00;103013.44;5010972;28;20395;-67
2022/01/15 04:39:10;;;;;;;75.93;28.15;;;;;;;1.53;100.00;103016.03;5010615;28;20036;-68
2022/01/15 04:41:35;;;;;;;77.22;28.88;;;;;;;1.52;100.00;103000.34;5010447;28;20325;-68
2022/01/15 04:44:00;;;;;;;69.40;27.27;;;;;;;1.50;100.00;103007.31;5010849;28;20033;-68
2022/01/15 04:46:25;;;;;;;75.80;28.00;;;;;;;1.50;100.00;102999.47;5011195;28;20165;-68
2022/01/15 04:48:51;;;;;;;71.65;28.42;;;;;;;1.48;100.00;103002.06;5010573;28;20045;-68
2022/01/15 04:51:16;;;;;;;77.50;28.70;;;;;;;1.50;100.00;103007.31;5010983;28;20131;-68
2022/01/15 04:53:41;;;;;;;73.47;29.52;;;;;;;1.51;100.00;103004.69;5013719;28;20042;-68
2022/01/15 04:56:06;;;;;;;78.38;29.15;;;;;;;1.50;100.00;103002.97;5015456;28;20025;-68
2022/01/15 04:58:32;;;;;;;67.85;27.73;;;;;;;1.51;100.00;102986.34;5014672;28;20127;-68
2022/01/15 05:00:57;;;;;;;71.22;28.15;;;;;;;1.53;100.00;102986.34;5020155;28;20060;-68
2022/01/15 05:03:22;;;;;;;78.20;26.95;;;;;;;1.53;100.00;102983.75;5035354;28;20037;-67
2022/01/15 05:05:48;;;;;;;68.00;27.20;;;;;;;1.54;100.00;102983.72;5033376;28;20414;-68
2022/01/15 05:08:13;;;;;;;68.15;27.33;;;;;;;1.54;100.00;102975.00;5016754;28;20026;-68
2022/01/15 05:10:45;;;;;;;75.30;27.77;;;;;;;1.54;100.00;102970.63;5014021;28;20069;-68
2022/01/15 05:13:10;;;;;;;72.63;26.95;;;;;;;1.56;100.00;102983.72;5013739;28;20041;-68
2022/01/15 05:15:35;;;;;;;72.50;28.35;;;;;;;1.53;100.00;102979.34;5014932;28;20026;-68
2022/01/15 05:18:01;;;;;;;67.43;27.90;;;;;;;1.54;100.00;102975.88;5015021;28;20040;-68
2022/01/15 05:20:26;;;;;;;72.72;27.83;;;;;;;1.56;100.00;102968.88;5015313;28;20113;-68
2022/01/15 05:22:51;;;;;;;66.38;27.67;;;;;;;1.58;100.00;102972.38;5015161;28;20030;-68
2022/01/15 05:25:18;;;;;;;78.93;31.60;;;;;;;1.60;100.00;102970.63;5014862;28;20033;-69
2022/01/15 05:27:45;;;;;;;65.13;29.23;;;;;;;1.62;100.00;102968.84;5018836;28;20083;-67
2022/01/15 05:30:12;;;;;;;78.22;30.75;;;;;;;1.61;100.00;102961.88;5019045;28;20026;-68
2022/01/15 05:32:37;;;;;;;81.72;30.25;;;;;;;1.62;100.00;102949.66;5015244;28;20438;-67
2022/01/15 05:35:03;;;;;;;95.57;31.48;;;;;;;1.61;100.00;102953.16;5014702;28;20045;-67
2022/01/15 05:37:28;;;;;;;88.30;32.70;;;;;;;1.60;100.00;102947.03;5014177;28;20037;-67
2022/01/15 05:39:54;;;;;;;88.10;32.30;;;;;;;1.62;100.00;102944.41;5013429;28;20026;-68
2022/01/15 05:42:19;;;;;;;74.88;32.05;;;;;;;1.60;100.00;102936.56;5013331;28;20026;-68
2022/01/15 05:44:45;;;;;;;78.45;31.40;;;;;;;1.62;100.00;102939.19;5013217;28;20387;-68
2022/01/15 05:47:11;;;;;;;88.47;31.52;;;;;;;1.60;100.00;102931.34;5013793;28;20487;-67
2022/01/15 05:49:37;;;;;;;84.03;33.33;;;;;;;1.62;100.00;102933.94;5013498;28;20053;-67
2022/01/15 05:52:03;;;;;;;90.07;32.78;;;;;;;1.61;100.00;102935.66;5013187;28;20046;-68
2022/01/15 05:54:29;;;;;;;96.28;32.78;;;;;;;1.59;100.00;102932.19;5013578;28;20026;-68
2022/01/15 05:56:54;;;;;;;77.95;34.17;;;;;;;1.59;100.00;102924.34;5013635;28;20105;-67
2022/01/15 05:59:19;;;;;;;79.10;30.92;;;;;;;1.61;100.00;102919.09;5014029;28;20113;-68
2022/01/15 06:01:45;;;;;;;65.80;28.90;;;;;;;1.60;100.00;102914.72;5025899;28;20348;-68
2022/01/15 06:04:10;;;;;;;75.07;29.92;;;;;;;1.58;100.00;102909.53;5013786;28;20084;-68
2022/01/15 06:06:35;;;;;;;68.13;30.58;;;;;;;1.59;100.00;102915.63;5030695;28;20083;-67
2022/01/15 06:09:03;;;;;;;67.07;31.05;;;;;;;1.59;100.00;102921.72;5032395;28;20072;-67
2022/01/15 06:11:29;;;;;;;63.65;30.15;;;;;;;1.60;100.00;102910.38;5034800;28;20104;-67
2022/01/15 06:13:54;;;;;;;68.82;29.80;;;;;;;1.60;100.00;102915.63;5025070;28;20090;-68
2022/01/15 06:16:20;;;;;;;79.95;30.17;;;;;;;1.59;100.00;102907.75;5033347;28;20022;-68
2022/01/15 06:18:46;;;;;;;71.15;29.08;;;;;;;1.56;100.00;102899.91;5025831;28;20065;-68
2022/01/15 06:21:11;;;;;;;76.82;29.85;;;;;;;1.54;100.00;102913.03;5034423;28;20056;-68
2022/01/15 06:23:36;;;;;;;68.50;28.02;;;;;;;1.53;100.00;102910.41;5035222;28;20037;-68
2022/01/15 06:26:02;;;;;;;75.15;26.75;;;;;;;1.51;100.00;102913.03;5031780;28;20688;-68
2022/01/15 06:28:27;;;;;;;82.57;27.73;;;;;;;1.49;100.00;102904.31;5031010;28;20025;-68
2022/01/15 06:30:52;;;;;;;113.30;28.35;;;;;;;1.45;100.00;102900.84;5027494;28;20092;-68
2022/01/15 06:33:17;;;;;;;73.18;28.63;;;;;;;1.45;100.00;102902.63;5028158;28;20048;-69
2022/01/15 06:35:43;;;;;;;73.00;26.60;;;;;;;1.41;100.00;102906.09;5030091;28;20033;-69
2022/01/15 06:38:08;;;;;;;97.95;30.05;;;;;;;1.38;100.00;102900.88;5032282;28;20659;-68
2022/01/15 06:40:34;;;;;;;89.93;29.30;;;;;;;1.37;100.00;102899.16;5031273;28;20037;-68
2022/01/15 06:43:00;;;;;;;79.07;30.38;;;;;;;1.37;100.00;102905.25;5024932;28;20087;-68
2022/01/15 06:45:30;;;;;;;81.78;31.35;;;;;;;1.37;100.00;102907.00;5026028;28;20038;-68
2022/01/15 06:47:55;;;;;;;82.00;28.42;;;;;;;1.34;100.00;102900.03;5032582;28;20029;-68
2022/01/15 06:50:22;;;;;;;88.50;30.48;;;;;;;1.35;100.00;102896.53;5032545;28;20053;-68
2022/01/15 06:52:48;;;;;;;84.72;29.58;;;;;;;1.40;100.00;102896.50;5030714;28;20112;-68
2022/01/15 06:55:14;;;;;;;80.97;28.98;;;;;;;1.41;100.00;102895.63;5023898;28;20025;-68
2022/01/15 06:57:40;;;;;;;108.38;29.73;;;;;;;1.43;100.00;102904.34;5033658;28;20024;-67
2022/01/15 07:00:07;;;;;;;69.63;28.23;;;;;;;1.43;100.00;102899.09;5029947;28;20034;-67
2022/01/15 07:02:33;;;;;;;77.65;29.10;;;;;;;1.46;100.00;102904.34;5019074;28;20034;-68
2022/01/15 07:04:58;;;;;;;109.78;28.00;;;;;;;1.43;100.00;102904.34;5017155;28;20105;-68
2022/01/15 07:07:23;;;;;;;115.07;28.45;;;;;;;1.41;100.00;102901.72;5018498;28;20036;-68
2022/01/15 07:09:49;;;;;;;176.70;28.00;;;;;;;1.37;100.00;102899.16;5017030;28;20412;-67
2022/01/15 07:12:14;;;;;;;158.77;28.83;;;;;;;1.30;100.00;102900.94;5012616;28;20029;-68
2022/01/15 07:14:39;;;;;;;140.00;28.60;;;;;;;1.29;100.00;102907.03;5018675;28;20068;-68
2022/01/15 07:17:05;;;;;;;136.15;28.20;;;;;;;1.29;100.00;102901.81;5025705;28;20475;-68
2022/01/15 07:19:31;;;;;;;71.13;27.17;;;;;;;1.31;100.00;102902.66;5028951;28;20042;-68
2022/01/15 07:21:56;;;;;;;167.07;26.17;;;;;;;1.31;100.00;102896.56;5031957;28;20164;-68
2022/01/15 07:24:22;;;;;;;103.55;24.33;;;;;;;1.27;100.00;102896.56;5029260;28;20076;-68
2022/01/15 07:26:47;;;;;;;138.45;25.15;;;;;;;1.28;100.00;102889.56;5022340;28;20041;-68
2022/01/15 07:29:16;;;;;;;192.93;24.25;;;;;;;1.25;100.00;102898.34;5037763;28;20072;-68
2022/01/15 07:31:45;;;;;;;92.13;22.13;;;;;;;1.25;100.00;102897.44;5023820;28;20395;-68
2022/01/15 07:34:11;;;;;;;94.55;20.48;;;;;;;1.23;100.00;102896.59;5030661;28;20718;-68
2022/01/15 07:36:37;;;;;;;78.22;21.17;;;;;;;1.16;100.00;102895.75;5026709;28;20056;-68
2022/01/15 07:39:04;;;;;;;152.65;21.63;;;;;;;1.13;100.00;102895.75;5024545;28;20514;-68
2022/01/15 07:41:30;;;;;;;71.25;20.80;;;;;;;1.11;100.00;102898.38;5011539;28;20241;-68
2022/01/15 07:43:55;;;;;;;70.03;20.73;;;;;;;1.09;100.00;102889.66;5014723;28;20460;-68
2022/01/15 07:46:20;;;;;;;107.35;21.90;;;;;;;1.10;100.00;102894.03;5021814;28;20025;-68
2022/01/15 07:48:45;;;;;;;69.47;23.05;;;;;;;1.11;100.00;102895.75;5041363;28;20506;-68
2022/01/15 07:51:11;;;;;;;56.75;22.13;;;;;;;1.14;100.00;102909.72;5039153;28;20132;-68
2022/01/15 07:53:36;;;;;;;69.40;22.33;;;;;;;1.14;100.00;102900.13;5026213;28;20125;-68
2022/01/15 07:56:01;;;;;;;100.55;22.45;;;;;;;1.13;100.00;102908.84;5030406;28;20347;-68
2022/01/15 07:58:27;;;;;;;77.28;21.85;;;;;;;1.11;100.00;102905.34;5040603;28;20120;-68
2022/01/15 08:00:52;;;;;;;67.60;21.15;;;;;;;1.10;100.00;102908.88;5030721;28;20141;-68
2022/01/15 08:03:17;;;;;;;63.03;22.08;;;;;;;1.14;100.00;102907.13;5015396;28;20068;-68
2022/01/15 08:05:43;;;;;;;105.95;22.73;;;;;;;1.16;100.00;102910.59;5031685;28;20188;-68
2022/01/15 08:08:08;;;;;;;58.75;21.58;;;;;;;1.17;100.00;102913.19;5031537;28;20032;-68
2022/01/15 08:10:34;;;;;;;61.63;20.02;;;;;;;1.15;100.00;102912.34;5032473;28;20042;-68
2022/01/15 08:12:59;;;;;;;65.45;20.70;;;;;;;1.11;100.00;102907.97;5031906;28;20029;-68
2022/01/15 08:15:25;;;;;;;85.53;20.58;;;;;;;1.04;100.00;102901.91;5021692;28;20046;-68
2022/01/15 08:17:51;;;;;;;74.15;21.00;;;;;;;1.04;100.00;102907.13;5024964;28;20025;-68
2022/01/15 08:20:17;;;;;;;89.93;19.90;;;;;;;1.04;100.00;102896.66;5032583;28;20076;-68
2022/01/15 08:22:42;;;;;;;85.90;20.95;;;;;;;1.03;100.00;102899.28;5035541;28;20059;-68
2022/01/15 08:25:09;;;;;;;93.28;20.95;;;;;;;1.01;100.00;102895.81;5030860;28;20478;-68
2022/01/15 08:27:34;;;;;;;95.13;21.67;;;;;;;0.96;100.00;102894.97;5039288;28;20062;-68
2022/01/15 08:29:59;;;;;;;46.67;22.45;;;;;;;0.97;100.00;102892.34;5031509;28;20057;-68
2022/01/15 08:32:25;;;;;;;68.50;24.60;;;;;;;0.98;100.00;102895.81;5036285;28;20037;-68
2022/01/15 08:34:50;;;;;;;64.13;24.40;;;;;;;0.96;100.00;102887.97;5036390;28;20128;-68
2022/01/15 08:37:15;;;;;;;86.68;24.88;;;;;;;0.92;100.00;102879.25;5027176;28;20038;-68
2022/01/15 08:39:41;;;;;;;89.53;23.85;;;;;;;0.92;100.00;102888.88;5034806;28;20664;-68
2022/01/15 08:42:09;;;;;;;58.88;25.08;;;;;;;0.91;100.00;102889.72;5027012;28;20037;-68
2022/01/15 08:44:34;;;;;;;60.38;24.58;;;;;;;0.89;100.00;102887.13;5035529;28;20073;-68
2022/01/15 08:47:02;;;;;;;48.95;23.85;;;;;;;0.92;100.00;102897.59;5032469;28;20111;-68
2022/01/15 08:49:28;;;;;;;51.58;22.42;;;;;;;0.90;100.00;102890.63;5038375;28;20404;-68
2022/01/15 08:51:53;;;;;;;50.63;22.50;;;;;;;0.88;100.00;102884.50;5019831;28;20042;-69
2022/01/15 08:54:18;;;;;;;57.85;22.60;;;;;;;0.86;100.00;102894.97;5006737;28;20037;-68
2022/01/15 08:56:43;;;;;;;55.08;22.63;;;;;;;0.84;100.00;102890.63;5033310;28;20028;-68
2022/01/15 08:59:09;;;;;;;61.22;23.17;;;;;;;0.84;100.00;102883.66;5023559;28;20026;-68
2022/01/15 09:01:34;;;;;;;71.53;24.58;;;;;;;0.81;100.00;102895.88;5023750;28;20038;-68
2022/01/15 09:04:00;;;;;;;61.30;24.60;;;;;;;0.79;100.00;102889.78;5024510;28;20030;-68
2022/01/15 09:06:27;;;;;;;51.42;23.83;;;;;;;0.82;100.00;102884.53;5024608;28;20037;-68
2022/01/15 09:08:52;;;;;;;65.55;24.30;;;;;;;0.81;100.00;102888.88;5021150;28;20025;-68
2022/01/15 09:11:18;;;;;;;66.68;25.40;;;;;;;0.83;100.00;102873.19;5021823;28;20044;-68
2022/01/15 09:13:43;;;;;;;58.47;25.00;;;;;;;0.86;100.00;102875.81;5024539;28;20022;-68
2022/01/15 09:16:08;;;;;;;82.88;26.65;;;;;;;0.83;100.00;102879.28;5031074;28;20486;-68
2022/01/15 09:18:34;;;;;;;76.78;25.85;;;;;;;0.82;100.00;102881.94;5028031;28;20052;-68
2022/01/15 09:21:00;;;;;;;60.90;26.92;;;;;;;0.82;100.00;102874.94;5026311;28;20104;-68
2022/01/15 09:23:25;;;;;;;59.03;26.65;;;;;;;0.84;100.00;102872.31;5041902;28;20032;-68
2022/01/15 09:25:52;;;;;;;76.82;27.98;;;;;;;0.86;100.00;102870.56;5050186;28;20049;-68
2022/01/15 09:31:01;;;;;;;92.63;27.20;;;;;;;0.86;100.00;102858.34;5036401;28;20040;-68
2022/01/15 09:33:26;;;;;;;83.63;26.65;;;;;;;0.88;100.00;102859.25;5035825;28;20030;-68
2022/01/15 09:35:51;;;;;;;76.38;28.20;;;;;;;0.85;100.00;102859.25;5032515;28;20395;-70
2022/01/15 09:38:17;;;;;;;61.42;27.88;;;;;;;0.86;100.00;102855.72;5014570;28;20084;-68
2022/01/15 09:40:43;;;;;;;76.25;29.88;;;;;;;0.87;100.00;102852.25;5015271;28;20057;-68
2022/01/15 09:43:09;;;;;;;68.22;28.95;;;;;;;0.90;100.00;102854.00;5031948;28;20029;-71
2022/01/15 09:45:35;;;;;;;73.40;29.63;;;;;;;0.88;100.00;102856.63;5049211;28;20475;-68
2022/01/15 09:48:03;;;;;;;63.17;29.60;;;;;;;0.88;100.00;102851.38;5021121;28;20371;-68
2022/01/15 09:50:32;;;;;;;63.90;28.83;;;;;;;0.90;100.00;102854.00;5045733;28;20545;-68
2022/01/15 09:52:58;;;;;;;63.88;30.27;;;;;;;0.96;100.00;102861.81;5037457;28;20060;-68
2022/01/15 09:55:24;;;;;;;67.45;31.15;;;;;;;1.00;100.00;102862.66;5033829;28;20069;-68
2022/01/15 09:57:50;;;;;;;69.63;30.10;;;;;;;1.02;100.00;102863.53;5013919;28;20029;-68
2022/01/15 10:00:18;;;;;;;55.85;29.33;;;;;;;1.03;100.00;102860.94;5021537;28;20045;-68
2022/01/15 10:02:46;;;;;;;65.70;29.27;;;;;;;0.99;100.00;102851.34;5010937;28;20451;-68
2022/01/15 10:05:13;;;;;;;66.07;30.60;;;;;;;1.01;100.00;102867.88;5017935;28;20582;-68
2022/01/15 10:07:54;;;;;;;67.05;29.92;;;;;;;1.03;100.00;102863.53;5027844;28;20034;-68
2022/01/15 10:10:20;;;;;;;68.03;29.60;;;;;;;1.01;100.00;102856.56;5023276;28;20037;-68
2022/01/15 10:12:46;;;;;;;68.13;30.23;;;;;;;1.01;100.00;102860.03;5027379;28;20341;-68
2022/01/15 10:15:15;;;;;;;70.30;31.33;;;;;;;1.02;100.00;102864.41;5026112;28;20395;-68
2022/01/15 10:17:41;;;;;;;80.03;31.38;;;;;;;1.02;100.00;102869.63;5026963;28;20026;-68
2022/01/15 10:20:11;;;;;;;73.40;31.85;;;;;;;1.03;100.00;102870.50;5027767;28;20124;-68
2022/01/15 10:22:42;;;;;;;83.13;32.40;;;;;;;1.04;100.00;102857.41;5031791;28;20026;-68
2022/01/15 10:25:14;;;;;;;78.10;32.45;;;;;;;1.10;100.00;102859.16;5024048;28;20049;-66
2022/01/15 10:27:44;;;;;;;71.45;33.20;;;;;;;1.14;100.00;102854.75;5029038;28;20025;-66
2022/01/15 10:30:19;;;;;;;76.70;32.08;;;;;;;1.14;100.00;102853.00;5026764;28;20041;-68
2022/01/15 10:33:06;;;;;;;89.38;33.20;;;;;;;1.14;100.00;102853.00;5028115;28;20044;-66
2022/01/15 10:35:38;;;;;;;73.65;33.17;;;;;;;1.17;100.00;102846.91;5029182;28;20072;-66
2022/01/15 10:38:07;;;;;;;80.50;33.95;;;;;;;1.18;100.00;102843.38;5013166;28;20026;-66
2022/01/15 10:40:46;;;;;;;78.43;34.13;;;;;;;1.22;100.00;102843.38;5013782;28;20077;-66
2022/01/15 10:43:15;;;;;;;92.82;35.67;;;;;;;1.25;100.00;102845.97;5015026;28;20114;-66
2022/01/15 10:45:55;;;;;;;80.70;34.13;;;;;;;1.29;100.00;102838.97;5015252;28;20550;-66
2022/01/15 10:48:27;;;;;;;83.97;33.97;;;;;;;1.31;100.00;102852.06;5016580;28;20044;-66
2022/01/15 10:50:57;;;;;;;77.90;33.80;;;;;;;1.28;100.00;102847.69;5026590;28;20569;-66
2022/01/15 10:53:33;;;;;;;80.43;32.13;;;;;;;1.29;100.00;102846.81;5014048;28;20029;-67
2022/01/15 10:56:00;;;;;;;72.18;31.33;;;;;;;1.30;100.00;102845.97;5012050;28;20042;-67
2022/01/15 10:58:25;;;;;;;86.72;33.05;;;;;;;1.31;100.00;102838.97;5015105;28;20505;-67
2022/01/15 11:00:52;;;;;;;70.88;34.38;;;;;;;1.35;100.00;102832.81;5018339;28;20725;-67
2022/01/15 11:03:18;;;;;;;71.32;32.17;;;;;;;1.36;100.00;102832.81;5016861;28;20109;-66
2022/01/15 11:05:51;;;;;;;70.25;32.03;;;;;;;1.39;100.00;102830.19;5009454;28;20041;-65
2022/01/15 11:08:26;;;;;;;66.50;31.98;;;;;;;1.39;100.00;102821.47;5019275;28;20096;-66
2022/01/15 11:10:57;;;;;;;71.88;32.50;;;;;;;1.42;100.00;102822.31;5023011;28;20037;-65
2022/01/15 11:13:31;;;;;;;80.35;34.38;;;;;;;1.43;100.00;102818.81;5019547;28;20070;-66
2022/01/15 11:16:05;;;;;;;83.68;34.10;;;;;;;1.46;100.00;102810.06;5036652;28;20106;-66
2022/01/15 11:18:33;;;;;;;104.13;46.45;;;;;;;1.48;100.00;102814.41;5036992;28;20057;-66
2022/01/15 11:21:02;;;;;;;90.68;41.75;;;;;;;1.54;100.00;102810.88;5026440;28;20518;-66
2022/01/15 11:23:29;;;;;;;65.03;31.25;;;;;;;1.55;100.00;102812.63;5037544;28;20017;-66